createdAt,value
2018-09-23T00:00:29.407Z,98.24
2018-09-23T00:01:29.881Z,98.20
2018-09-23T00:02:30.350Z,98.23
2018-09-23T00:03:30.817Z,98.27
2018-09-23T00:04:31.288Z,98.22
2018-09-23T00:05:31.761Z,98.26
2018-09-23T00:06:32.228Z,98.25
2018-09-23T00:07:32.700Z,98.28
2018-09-23T00:08:33.169Z,98.26
2018-09-23T00:09:33.640Z,98.25
2018-09-23T00:10:34.111Z,98.27
2018-09-23T00:11:34.581Z,98.25
2018-09-23T00:12:35.050Z,98.27
2018-09-23T00:13:35.522Z,98.24
2018-09-23T00:14:35.991Z,98.25
2018-09-23T00:15:36.464Z,98.25
2018-09-23T00:16:36.936Z,98.29
2018-09-23T00:17:37.419Z,98.30
2018-09-23T00:18:37.876Z,98.26
2018-09-23T00:19:38.351Z,98.28
2018-09-23T00:20:38.822Z,98.26
2018-09-23T00:21:39.291Z,98.27
2018-09-23T00:22:39.968Z,98.25
2018-09-23T00:23:40.235Z,98.30
2018-09-23T00:24:40.706Z,98.27
2018-09-23T00:25:41.179Z,98.30
2018-09-23T00:26:41.653Z,98.27
2018-09-23T00:27:42.131Z,98.30
2018-09-23T00:28:42.597Z,98.27
2018-09-23T00:29:43.074Z,98.29
2018-09-23T00:30:43.543Z,98.31
2018-09-23T00:31:44.019Z,98.31
2018-09-23T00:32:44.489Z,98.29
2018-09-23T00:33:44.962Z,98.30
2018-09-23T00:34:45.436Z,98.28
2018-09-23T00:35:45.912Z,98.30
2018-09-23T00:36:46.382Z,98.31
2018-09-23T00:37:46.858Z,98.30
2018-09-23T00:38:47.335Z,98.30
2018-09-23T00:39:47.807Z,98.31
2018-09-23T00:40:48.278Z,98.28
2018-09-23T00:41:48.752Z,98.33
2018-09-23T00:42:49.224Z,98.32
2018-09-23T00:43:49.698Z,98.33
2018-09-23T00:44:50.173Z,98.31
2018-09-23T00:45:50.646Z,98.32
2018-09-23T00:46:51.120Z,98.31
2018-09-23T00:47:51.591Z,98.32
2018-09-23T00:48:52.062Z,98.32
2018-09-23T00:49:52.539Z,98.33
2018-09-23T00:50:53.008Z,98.31
2018-09-23T00:51:53.484Z,98.35
2018-09-23T00:52:53.957Z,98.36
2018-09-23T00:53:54.425Z,98.33
2018-09-23T00:54:54.896Z,98.31
2018-09-23T00:55:55.367Z,98.37
2018-09-23T00:56:55.840Z,98.33
2018-09-23T00:57:56.309Z,98.32
2018-09-23T00:58:56.781Z,98.34
2018-09-23T00:59:57.253Z,98.35
2018-09-23T01:00:57.721Z,98.38
2018-09-23T01:01:58.192Z,98.38
2018-09-23T01:02:58.664Z,98.36
2018-09-23T01:03:59.134Z,98.37
2018-09-23T01:04:59.603Z,98.34
2018-09-23T01:06:00.076Z,98.37
2018-09-23T01:07:00.544Z,98.35
2018-09-23T01:08:01.017Z,98.36
2018-09-23T01:09:01.487Z,98.37
2018-09-23T01:10:01.982Z,98.37
2018-09-23T01:11:02.424Z,98.38
2018-09-23T01:12:02.896Z,98.38
2018-09-23T01:13:03.364Z,98.36
2018-09-23T01:14:03.837Z,98.34
2018-09-23T01:15:04.305Z,98.38
2018-09-23T01:16:04.776Z,98.36
2018-09-23T01:17:05.243Z,98.39
2018-09-23T01:18:05.715Z,98.38
2018-09-23T01:19:06.185Z,98.35
2018-09-23T01:20:06.655Z,98.39
2018-09-23T01:21:07.125Z,98.38
2018-09-23T01:22:07.596Z,98.39
2018-09-23T01:23:08.068Z,98.43
2018-09-23T01:24:08.538Z,98.37
2018-09-23T01:25:09.008Z,98.38
2018-09-23T01:26:09.480Z,98.39
2018-09-23T01:27:09.954Z,98.40
2018-09-23T01:28:10.422Z,98.41
2018-09-23T01:29:10.899Z,98.39
2018-09-23T01:30:11.365Z,98.40
2018-09-23T01:31:11.839Z,98.41
2018-09-23T01:32:12.310Z,98.39
2018-09-23T01:33:12.781Z,98.40
2018-09-23T01:34:13.254Z,98.42
2018-09-23T01:35:13.726Z,98.42
2018-09-23T01:36:14.200Z,98.39
2018-09-23T01:37:14.721Z,98.44
2018-09-23T01:38:15.145Z,98.39
2018-09-23T01:39:15.617Z,98.40
2018-09-23T01:40:16.089Z,98.45
2018-09-23T01:41:16.562Z,98.42
2018-09-23T01:42:17.035Z,98.41
2018-09-23T01:43:17.508Z,98.39
2018-09-23T01:44:17.981Z,98.40
2018-09-23T01:45:18.455Z,98.39
2018-09-23T01:46:18.930Z,98.41
2018-09-23T01:47:19.401Z,98.44
2018-09-23T01:48:19.876Z,98.40
2018-09-23T01:49:20.352Z,98.43
2018-09-23T01:50:20.823Z,98.45
2018-09-23T01:51:21.302Z,98.44
2018-09-23T01:52:21.773Z,98.44
2018-09-23T01:53:22.244Z,98.45
2018-09-23T01:54:22.721Z,98.43
2018-09-23T01:55:23.198Z,98.41
2018-09-23T01:56:23.669Z,98.45
2018-09-23T01:57:24.139Z,98.41
2018-09-23T01:58:24.614Z,98.45
2018-09-23T01:59:25.092Z,98.46
2018-09-23T02:00:25.562Z,98.45
2018-09-23T02:01:26.034Z,98.46
2018-09-23T02:02:26.505Z,98.44
2018-09-23T02:03:26.978Z,98.46
2018-09-23T02:04:27.452Z,98.45
2018-09-23T02:05:27.925Z,98.46
2018-09-23T02:06:28.395Z,98.45
2018-09-23T02:07:28.867Z,98.45
2018-09-23T02:08:29.339Z,98.47
2018-09-23T02:09:29.811Z,98.49
2018-09-23T02:10:30.281Z,98.44
2018-09-23T02:11:30.753Z,98.43
2018-09-23T02:12:31.226Z,98.47
2018-09-23T02:13:31.693Z,98.44
2018-09-23T02:14:32.165Z,98.46
2018-09-23T02:15:32.636Z,98.47
2018-09-23T02:16:33.109Z,98.47
2018-09-23T02:17:33.576Z,98.47
2018-09-23T02:18:34.048Z,98.51
2018-09-23T02:19:34.519Z,98.50
2018-09-23T02:20:34.987Z,98.46
2018-09-23T02:21:35.457Z,98.47
2018-09-23T02:22:35.927Z,98.48
2018-09-23T02:23:36.399Z,98.47
2018-09-23T02:24:36.877Z,98.48
2018-09-23T02:25:37.401Z,98.46
2018-09-23T02:26:37.808Z,98.49
2018-09-23T02:27:38.285Z,98.47
2018-09-23T02:28:38.750Z,98.49
2018-09-23T02:29:39.220Z,98.48
2018-09-23T02:30:39.702Z,98.50
2018-09-23T02:31:40.160Z,98.48
2018-09-23T02:32:40.635Z,98.49
2018-09-23T02:33:41.108Z,98.49
2018-09-23T02:34:41.573Z,98.46
2018-09-23T02:35:42.046Z,98.50
2018-09-23T02:36:42.514Z,98.50
2018-09-23T02:37:42.987Z,98.49
2018-09-23T02:38:43.458Z,98.49
2018-09-23T02:39:43.931Z,98.49
2018-09-23T02:40:44.405Z,98.51
2018-09-23T02:41:44.873Z,98.50
2018-09-23T02:42:45.344Z,98.54
2018-09-23T02:43:45.816Z,98.50
2018-09-23T02:44:46.287Z,98.51
2018-09-23T02:45:46.760Z,98.51
2018-09-23T02:46:47.236Z,98.50
2018-09-23T02:47:47.907Z,98.50
2018-09-23T02:48:48.179Z,98.49
2018-09-23T02:49:48.852Z,98.51
2018-09-23T02:50:49.124Z,98.52
2018-09-23T02:51:49.596Z,98.51
2018-09-23T02:52:50.072Z,98.50
2018-09-23T02:53:50.543Z,98.50
2018-09-23T02:54:51.016Z,98.54
2018-09-23T02:55:51.492Z,98.51
2018-09-23T02:56:51.963Z,98.50
2018-09-23T02:57:52.437Z,98.51
2018-09-23T02:58:52.911Z,98.51
2018-09-23T02:59:53.386Z,98.51
2018-09-23T03:00:53.860Z,98.53
2018-09-23T03:01:54.332Z,98.51
2018-09-23T03:02:54.813Z,98.55
2018-09-23T03:03:55.282Z,98.56
2018-09-23T03:04:55.757Z,98.52
2018-09-23T03:05:56.231Z,98.54
2018-09-23T03:06:56.702Z,98.54
2018-09-23T03:07:57.175Z,98.51
2018-09-23T03:08:57.650Z,98.52
2018-09-23T03:09:58.123Z,98.51
2018-09-23T03:10:58.594Z,98.51
2018-09-23T03:11:59.070Z,98.51
2018-09-23T03:12:59.542Z,98.55
2018-09-23T03:14:00.013Z,98.56
2018-09-23T03:15:00.488Z,98.56
2018-09-23T03:16:00.960Z,98.55
2018-09-23T03:17:01.432Z,98.54
2018-09-23T03:18:01.902Z,98.56
2018-09-23T03:19:02.376Z,98.56
2018-09-23T03:20:02.848Z,98.54
2018-09-23T03:21:03.320Z,98.56
2018-09-23T03:22:03.790Z,98.54
2018-09-23T03:23:04.262Z,98.52
2018-09-23T03:24:04.734Z,98.56
2018-09-23T03:25:05.206Z,98.53
2018-09-23T03:26:05.674Z,98.56
2018-09-23T03:27:06.145Z,98.53
2018-09-23T03:28:06.616Z,98.57
2018-09-23T03:29:07.087Z,98.56
2018-09-23T03:30:07.556Z,98.57
2018-09-23T03:31:08.027Z,98.56
2018-09-23T03:32:08.496Z,98.55
2018-09-23T03:33:08.967Z,98.55
2018-09-23T03:34:09.436Z,98.55
2018-09-23T03:35:09.907Z,98.56
2018-09-23T03:36:10.377Z,98.57
2018-09-23T03:37:10.848Z,98.57
2018-09-23T03:38:11.519Z,98.53
2018-09-23T03:39:11.786Z,98.57
2018-09-23T03:40:12.259Z,98.57
2018-09-23T03:41:12.728Z,98.61
2018-09-23T03:42:13.199Z,98.57
2018-09-23T03:43:13.673Z,98.57
2018-09-23T03:44:14.139Z,98.61
2018-09-23T03:45:14.612Z,98.56
2018-09-23T03:46:15.085Z,98.60
2018-09-23T03:47:15.553Z,98.60
2018-09-23T03:48:16.022Z,98.60
2018-09-23T03:49:16.496Z,98.58
2018-09-23T03:50:16.964Z,98.56
2018-09-23T03:51:17.438Z,98.60
2018-09-23T03:52:17.914Z,98.56
2018-09-23T03:53:18.380Z,98.59
2018-09-23T03:54:18.855Z,98.58
2018-09-23T03:55:19.324Z,98.57
2018-09-23T03:56:19.796Z,98.61
2018-09-23T03:57:20.268Z,98.61
2018-09-23T03:58:20.742Z,98.61
2018-09-23T03:59:21.214Z,98.61
2018-09-23T04:00:21.685Z,98.58
2018-09-23T04:01:22.159Z,98.59
2018-09-23T04:02:22.633Z,98.59
2018-09-23T04:03:23.104Z,98.62
2018-09-23T04:04:23.581Z,98.59
2018-09-23T04:05:24.052Z,98.60
2018-09-23T04:06:24.525Z,98.59
2018-09-23T04:07:24.999Z,98.61
2018-09-23T04:08:25.471Z,98.61
2018-09-23T04:09:25.949Z,98.61
2018-09-23T04:10:26.418Z,98.62
2018-09-23T04:11:26.893Z,98.62
2018-09-23T04:12:27.368Z,98.62
2018-09-23T04:13:27.841Z,98.61
2018-09-23T04:14:28.313Z,98.57
2018-09-23T04:15:28.789Z,98.61
2018-09-23T04:16:29.266Z,98.61
2018-09-23T04:17:29.736Z,98.60
2018-09-23T04:18:30.211Z,98.62
2018-09-23T04:19:30.684Z,98.62
2018-09-23T04:20:31.158Z,98.62
2018-09-23T04:21:31.630Z,98.62
2018-09-23T04:22:32.103Z,98.62
2018-09-23T04:23:32.576Z,98.62
2018-09-23T04:24:33.048Z,98.62
2018-09-23T04:25:33.526Z,98.62
2018-09-23T04:26:33.995Z,98.63
2018-09-23T04:27:34.470Z,98.63
2018-09-23T04:28:34.942Z,98.62
2018-09-23T04:29:35.412Z,98.64
2018-09-23T04:30:35.883Z,98.64
2018-09-23T04:31:36.355Z,98.63
2018-09-23T04:32:36.827Z,98.62
2018-09-23T04:33:37.297Z,98.62
2018-09-23T04:34:37.770Z,98.65
2018-09-23T04:35:38.243Z,98.62
2018-09-23T04:36:38.715Z,98.62
2018-09-23T04:37:39.183Z,98.62
2018-09-23T04:38:39.653Z,98.61
2018-09-23T04:39:40.128Z,98.65
2018-09-23T04:40:40.593Z,98.61
2018-09-23T04:41:41.065Z,98.65
2018-09-23T04:42:41.533Z,98.65
2018-09-23T04:43:42.005Z,98.62
2018-09-23T04:44:42.476Z,98.66
2018-09-23T04:45:42.947Z,98.65
2018-09-23T04:46:43.418Z,98.61
2018-09-23T04:47:43.886Z,98.65
2018-09-23T04:48:44.356Z,98.65
2018-09-23T04:49:44.827Z,98.65
2018-09-23T04:50:45.295Z,98.69
2018-09-23T04:51:45.768Z,98.65
2018-09-23T04:52:46.237Z,98.65
2018-09-23T04:53:46.708Z,98.65
2018-09-23T04:54:47.178Z,98.61
2018-09-23T04:55:47.650Z,98.65
2018-09-23T04:56:48.124Z,98.65
2018-09-23T04:57:48.591Z,98.65
2018-09-23T04:58:49.061Z,98.67
2018-09-23T04:59:49.735Z,98.63
2018-09-23T05:00:50.005Z,98.69
2018-09-23T05:01:50.476Z,98.64
2018-09-23T05:02:50.949Z,98.64
2018-09-23T05:03:51.420Z,98.66
2018-09-23T05:04:51.890Z,98.64
2018-09-23T05:05:52.363Z,98.64
2018-09-23T05:06:52.834Z,98.64
2018-09-23T05:07:53.308Z,98.68
2018-09-23T05:08:53.777Z,98.64
2018-09-23T05:09:54.252Z,98.64
2018-09-23T05:10:54.727Z,98.68
2018-09-23T05:11:55.196Z,98.66
2018-09-23T05:12:55.670Z,98.64
2018-09-23T05:13:56.143Z,98.68
2018-09-23T05:14:56.614Z,98.64
2018-09-23T05:15:57.089Z,98.69
2018-09-23T05:16:57.561Z,98.68
2018-09-23T05:17:58.036Z,98.69
2018-09-23T05:18:58.559Z,98.68
2018-09-23T05:19:58.983Z,98.68
2018-09-23T05:20:59.455Z,98.68
2018-09-23T05:21:59.931Z,98.68
2018-09-23T05:23:00.405Z,98.68
2018-09-23T05:24:00.878Z,98.70
2018-09-23T05:25:01.360Z,98.68
2018-09-23T05:26:01.827Z,98.67
2018-09-23T05:27:02.300Z,98.67
2018-09-23T05:28:02.772Z,98.66
2018-09-23T05:29:03.247Z,98.67
2018-09-23T05:30:03.721Z,98.69
2018-09-23T05:31:04.238Z,98.67
2018-09-23T05:32:04.669Z,98.68
2018-09-23T05:33:05.143Z,98.71
2018-09-23T05:34:05.614Z,98.66
2018-09-23T05:35:06.089Z,98.70
2018-09-23T05:36:06.562Z,98.71
2018-09-23T05:37:07.034Z,98.65
2018-09-23T05:38:07.508Z,98.66
2018-09-23T05:39:07.979Z,98.67
2018-09-23T05:40:08.452Z,98.69
2018-09-23T05:41:08.926Z,98.69
2018-09-23T05:42:09.398Z,98.69
2018-09-23T05:43:09.866Z,98.69
2018-09-23T05:44:10.340Z,98.69
2018-09-23T05:45:10.811Z,98.69
2018-09-23T05:46:11.283Z,98.69
2018-09-23T05:47:11.753Z,98.73
2018-09-23T05:48:12.223Z,98.69
2018-09-23T05:49:12.694Z,98.73
2018-09-23T05:50:13.166Z,98.69
2018-09-23T05:51:13.636Z,98.69
2018-09-23T05:52:14.107Z,98.67
2018-09-23T05:53:14.619Z,98.69
2018-09-23T05:54:15.051Z,98.73
2018-09-23T05:55:15.523Z,98.68
2018-09-23T05:56:15.991Z,98.71
2018-09-23T05:57:16.461Z,98.68
2018-09-23T05:58:16.930Z,98.73
2018-09-23T05:59:17.398Z,98.73
2018-09-23T06:00:17.868Z,98.72
2018-09-23T06:01:18.339Z,98.70
2018-09-23T06:02:18.811Z,98.72
2018-09-23T06:03:19.281Z,98.69
2018-09-23T06:04:19.752Z,98.72
2018-09-23T06:05:20.223Z,98.72
2018-09-23T06:06:20.694Z,98.72
2018-09-23T06:07:21.161Z,98.72
2018-09-23T06:08:21.633Z,98.73
2018-09-23T06:09:22.107Z,98.73
2018-09-23T06:10:22.578Z,98.72
2018-09-23T06:11:23.050Z,98.73
2018-09-23T06:12:23.520Z,98.72
2018-09-23T06:13:23.991Z,98.72
2018-09-23T06:14:24.461Z,98.73
2018-09-23T06:15:24.933Z,98.73
2018-09-23T06:16:25.406Z,98.72
2018-09-23T06:17:25.879Z,98.72
2018-09-23T06:18:26.423Z,98.72
2018-09-23T06:19:26.823Z,98.72
2018-09-23T06:20:27.296Z,98.72
2018-09-23T06:21:27.773Z,98.72
2018-09-23T06:22:28.243Z,98.72
2018-09-23T06:23:28.713Z,98.75
2018-09-23T06:24:29.188Z,98.72
2018-09-23T06:25:29.662Z,98.72
2018-09-23T06:26:30.133Z,98.72
2018-09-23T06:27:30.607Z,98.74
2018-09-23T06:28:31.081Z,98.74
2018-09-23T06:29:31.556Z,98.74
2018-09-23T06:30:32.028Z,98.72
2018-09-23T06:31:32.502Z,98.72
2018-09-23T06:32:32.975Z,98.72
2018-09-23T06:33:33.450Z,98.74
2018-09-23T06:34:33.925Z,98.74
2018-09-23T06:35:34.399Z,98.75
2018-09-23T06:36:34.875Z,98.75
2018-09-23T06:37:35.348Z,98.72
2018-09-23T06:38:35.821Z,98.73
2018-09-23T06:39:36.292Z,98.76
2018-09-23T06:40:36.772Z,98.72
2018-09-23T06:41:37.242Z,98.71
2018-09-23T06:42:37.722Z,98.74
2018-09-23T06:43:38.188Z,98.71
2018-09-23T06:44:38.662Z,98.74
2018-09-23T06:45:39.148Z,98.74
2018-09-23T06:46:39.608Z,98.75
2018-09-23T06:47:40.081Z,98.76
2018-09-23T06:48:40.551Z,98.75
2018-09-23T06:49:41.024Z,98.75
2018-09-23T06:50:41.496Z,98.75
2018-09-23T06:51:41.969Z,98.75
2018-09-23T06:52:42.440Z,98.74
2018-09-23T06:53:42.911Z,98.73
2018-09-23T06:54:43.386Z,98.73
2018-09-23T06:55:43.856Z,98.75
2018-09-23T06:56:44.329Z,98.75
2018-09-23T06:57:44.797Z,98.77
2018-09-23T06:58:45.273Z,98.71
2018-09-23T06:59:45.737Z,98.76
2018-09-23T07:00:46.209Z,98.76
2018-09-23T07:01:46.678Z,98.76
2018-09-23T07:02:47.158Z,98.74
2018-09-23T07:03:47.619Z,98.76
2018-09-23T07:04:48.115Z,98.75
2018-09-23T07:05:48.561Z,98.76
2018-09-23T07:06:49.031Z,98.76
2018-09-23T07:07:49.502Z,98.75
2018-09-23T07:08:49.969Z,98.76
2018-09-23T07:09:50.445Z,98.75
2018-09-23T07:10:50.913Z,98.76
2018-09-23T07:11:51.382Z,98.77
2018-09-23T07:12:51.850Z,98.76
2018-09-23T07:13:52.322Z,98.79
2018-09-23T07:14:52.792Z,98.75
2018-09-23T07:15:53.261Z,98.75
2018-09-23T07:16:53.734Z,98.75
2018-09-23T07:17:54.205Z,98.75
2018-09-23T07:18:54.877Z,98.79
2018-09-23T07:19:55.145Z,98.78
2018-09-23T07:20:55.621Z,98.75
2018-09-23T07:21:56.088Z,98.79
2018-09-23T07:22:56.560Z,98.80
2018-09-23T07:23:57.114Z,98.80
2018-09-23T07:24:57.504Z,98.75
2018-09-23T07:25:57.974Z,98.78
2018-09-23T07:26:58.447Z,98.78
2018-09-23T07:27:58.919Z,98.78
2018-09-23T07:28:59.390Z,98.76
2018-09-23T07:29:59.882Z,98.76
2018-09-23T07:31:00.335Z,98.77
2018-09-23T07:32:00.806Z,98.80
2018-09-23T07:33:01.284Z,98.80
2018-09-23T07:34:01.753Z,98.76
2018-09-23T07:35:02.227Z,98.76
2018-09-23T07:36:02.701Z,98.80
2018-09-23T07:37:03.276Z,98.78
2018-09-23T07:38:03.646Z,98.79
2018-09-23T07:39:04.119Z,98.76
2018-09-23T07:40:04.807Z,98.79
2018-09-23T07:41:05.066Z,98.76
2018-09-23T07:42:05.543Z,98.77
2018-09-23T07:43:06.017Z,98.77
2018-09-23T07:44:06.488Z,98.77
2018-09-23T07:45:06.963Z,98.77
2018-09-23T07:46:07.437Z,98.77
2018-09-23T07:47:07.911Z,98.80
2018-09-23T07:48:08.453Z,98.79
2018-09-23T07:49:08.857Z,98.78
2018-09-23T07:50:09.332Z,98.78
2018-09-23T07:51:09.806Z,98.79
2018-09-23T07:52:10.280Z,98.79
2018-09-23T07:53:10.752Z,98.79
2018-09-23T07:54:11.226Z,98.79
2018-09-23T07:55:11.699Z,98.79
2018-09-23T07:56:12.172Z,98.79
2018-09-23T07:57:12.649Z,98.78
2018-09-23T07:58:13.118Z,98.79
2018-09-23T07:59:13.592Z,98.82
2018-09-23T08:00:14.060Z,98.78
2018-09-23T08:01:14.534Z,98.81
2018-09-23T08:02:15.008Z,98.78
2018-09-23T08:03:15.478Z,98.80
2018-09-23T08:04:15.949Z,98.80
2018-09-23T08:05:16.456Z,98.79
2018-09-23T08:06:16.892Z,98.79
2018-09-23T08:07:17.364Z,98.82
2018-09-23T08:08:17.833Z,98.82
2018-09-23T08:09:18.307Z,98.81
2018-09-23T08:10:18.775Z,98.80
2018-09-23T08:11:19.246Z,98.81
2018-09-23T08:12:19.755Z,98.82
2018-09-23T08:13:20.269Z,98.82
2018-09-23T08:14:20.984Z,98.82
2018-09-23T08:15:21.127Z,98.82
2018-09-23T08:16:21.598Z,98.82
2018-09-23T08:17:22.107Z,98.80
2018-09-23T08:18:22.539Z,98.82
2018-09-23T08:19:23.085Z,98.82
2018-09-23T08:20:23.570Z,98.82
2018-09-23T08:21:23.987Z,98.82
2018-09-23T08:22:24.418Z,98.82
2018-09-23T08:23:24.890Z,98.82
2018-09-23T08:24:25.358Z,98.80
2018-09-23T08:25:25.892Z,98.82
2018-09-23T08:26:26.378Z,98.80
2018-09-23T08:27:26.771Z,98.78
2018-09-23T08:28:27.241Z,98.83
2018-09-23T08:29:27.712Z,98.81
2018-09-23T08:30:28.189Z,98.81
2018-09-23T08:31:28.655Z,98.84
2018-09-23T08:32:29.132Z,98.81
2018-09-23T08:33:29.598Z,98.83
2018-09-23T08:34:30.072Z,98.83
2018-09-23T08:35:30.542Z,98.83
2018-09-23T08:36:31.012Z,98.83
2018-09-23T08:37:31.555Z,98.83
2018-09-23T08:38:31.958Z,98.81
2018-09-23T08:39:32.431Z,98.83
2018-09-23T08:40:32.902Z,98.83
2018-09-23T08:41:33.377Z,98.80
2018-09-23T08:42:33.847Z,98.84
2018-09-23T08:43:34.322Z,98.79
2018-09-23T08:44:34.792Z,98.81
2018-09-23T08:45:35.266Z,98.81
2018-09-23T08:46:35.743Z,98.84
2018-09-23T08:47:36.214Z,98.83
2018-09-23T08:48:36.686Z,98.82
2018-09-23T08:49:37.162Z,98.83
2018-09-23T08:50:37.634Z,98.84
2018-09-23T08:51:38.131Z,98.85
2018-09-23T08:52:38.588Z,98.84
2018-09-23T08:53:39.061Z,98.85
2018-09-23T08:54:39.529Z,98.84
2018-09-23T08:55:40.011Z,98.85
2018-09-23T08:56:40.479Z,98.84
2018-09-23T08:57:41.016Z,98.80
2018-09-23T08:58:41.425Z,98.82
2018-09-23T08:59:41.900Z,98.82
2018-09-23T09:00:42.373Z,98.84
2018-09-23T09:01:42.846Z,98.84
2018-09-23T09:02:43.321Z,98.82
2018-09-23T09:03:43.834Z,98.86
2018-09-23T09:04:44.264Z,98.83
2018-09-23T09:05:44.740Z,98.83
2018-09-23T09:06:45.211Z,98.83
2018-09-23T09:07:45.684Z,98.83
2018-09-23T09:08:46.155Z,98.84
2018-09-23T09:09:46.627Z,98.85
2018-09-23T09:10:47.100Z,98.87
2018-09-23T09:11:47.606Z,98.87
2018-09-23T09:12:48.043Z,98.87
2018-09-23T09:13:48.515Z,98.83
2018-09-23T09:14:48.987Z,98.83
2018-09-23T09:15:49.460Z,98.84
2018-09-23T09:16:49.933Z,98.84
2018-09-23T09:17:50.400Z,98.84
2018-09-23T09:18:50.929Z,98.85
2018-09-23T09:19:51.342Z,98.87
2018-09-23T09:20:51.816Z,98.86
2018-09-23T09:21:52.284Z,98.86
2018-09-23T09:22:52.753Z,98.84
2018-09-23T09:23:53.224Z,98.89
2018-09-23T09:24:53.692Z,98.84
2018-09-23T09:25:54.163Z,98.87
2018-09-23T09:26:54.671Z,98.84
2018-09-23T09:27:55.105Z,98.85
2018-09-23T09:28:55.573Z,98.85
2018-09-23T09:29:56.044Z,98.89
2018-09-23T09:30:56.515Z,98.84
2018-09-23T09:31:56.987Z,98.84
2018-09-23T09:32:57.454Z,98.87
2018-09-23T09:33:57.929Z,98.85
2018-09-23T09:34:58.397Z,98.85
2018-09-23T09:35:58.867Z,98.85
2018-09-23T09:36:59.338Z,98.84
2018-09-23T09:37:59.809Z,98.87
2018-09-23T09:39:00.279Z,98.87
2018-09-23T09:40:00.750Z,98.83
2018-09-23T09:41:01.222Z,98.84
2018-09-23T09:42:01.692Z,98.85
2018-09-23T09:43:02.163Z,98.85
2018-09-23T09:44:02.655Z,98.87
2018-09-23T09:45:03.105Z,98.88
2018-09-23T09:46:03.579Z,98.86
2018-09-23T09:47:04.054Z,98.85
2018-09-23T09:48:04.524Z,98.86
2018-09-23T09:49:04.995Z,98.86
2018-09-23T09:50:05.467Z,98.87
2018-09-23T09:51:05.942Z,98.86
2018-09-23T09:52:06.416Z,98.90
2018-09-23T09:53:06.885Z,98.88
2018-09-23T09:54:07.361Z,98.86
2018-09-23T09:55:07.834Z,98.87
2018-09-23T09:56:08.309Z,98.89
2018-09-23T09:57:08.783Z,98.87
2018-09-23T09:58:09.253Z,98.85
2018-09-23T09:59:09.728Z,98.88
2018-09-23T10:00:10.202Z,98.86
2018-09-23T10:01:10.675Z,98.88
2018-09-23T10:02:11.148Z,98.90
2018-09-23T10:03:11.624Z,98.87
2018-09-23T10:04:12.183Z,98.88
2018-09-23T10:05:12.570Z,98.88
2018-09-23T10:06:13.044Z,98.88
2018-09-23T10:07:13.522Z,98.88
2018-09-23T10:08:13.991Z,98.89
2018-09-23T10:09:14.465Z,98.88
2018-09-23T10:10:14.939Z,98.88
2018-09-23T10:11:15.411Z,98.88
2018-09-23T10:12:15.888Z,98.89
2018-09-23T10:13:16.358Z,98.89
2018-09-23T10:14:16.833Z,98.86
2018-09-23T10:15:17.307Z,98.89
2018-09-23T10:16:17.779Z,98.89
2018-09-23T10:17:18.250Z,98.87
2018-09-23T10:18:18.723Z,98.89
2018-09-23T10:19:19.198Z,98.87
2018-09-23T10:20:19.669Z,98.85
2018-09-23T10:21:20.150Z,98.87
2018-09-23T10:22:20.613Z,98.89
2018-09-23T10:23:21.176Z,98.89
2018-09-23T10:24:21.555Z,98.87
2018-09-23T10:25:22.029Z,98.91
2018-09-23T10:26:22.499Z,98.89
2018-09-23T10:27:22.970Z,98.88
2018-09-23T10:28:23.441Z,98.86
2018-09-23T10:29:23.913Z,98.86
2018-09-23T10:30:24.390Z,98.82
2018-09-23T10:31:24.968Z,98.83
2018-09-23T10:32:25.325Z,98.86
2018-09-23T10:33:25.792Z,98.89
2018-09-23T10:34:26.263Z,98.84
2018-09-23T10:35:26.735Z,98.85
2018-09-23T10:36:27.207Z,98.84
2018-09-23T10:37:27.674Z,98.81
2018-09-23T10:38:28.145Z,98.84
2018-09-23T10:39:28.617Z,98.80
2018-09-23T10:40:29.090Z,98.80
2018-09-23T10:41:29.554Z,98.80
2018-09-23T10:42:30.027Z,98.80
2018-09-23T10:43:30.497Z,98.80
2018-09-23T10:44:30.968Z,98.77
2018-09-23T10:45:31.438Z,98.77
2018-09-23T10:46:31.908Z,98.76
2018-09-23T10:47:32.581Z,98.74
2018-09-23T10:48:32.860Z,98.74
2018-09-23T10:49:33.322Z,98.72
2018-09-23T10:50:33.791Z,98.72
2018-09-23T10:51:34.263Z,98.72
2018-09-23T10:52:34.735Z,98.72
2018-09-23T10:53:35.207Z,98.73
2018-09-23T10:54:35.677Z,98.67
2018-09-23T10:55:36.202Z,98.73
2018-09-23T10:56:36.623Z,98.72
2018-09-23T10:57:37.096Z,98.70
2018-09-23T10:58:37.566Z,98.71
2018-09-23T10:59:38.045Z,98.76
2018-09-23T11:00:38.516Z,98.76
2018-09-23T11:01:38.984Z,98.76
2018-09-23T11:02:39.458Z,98.76
2018-09-23T11:03:39.942Z,98.76
2018-09-23T11:04:40.405Z,98.77
2018-09-23T11:05:40.881Z,98.73
2018-09-23T11:06:41.351Z,98.56
2018-09-23T11:07:41.826Z,98.46
2018-09-23T11:08:42.298Z,98.40
2018-09-23T11:09:42.786Z,98.37
2018-09-23T11:10:43.246Z,98.23
2018-09-23T11:11:43.724Z,98.22
2018-09-23T11:12:44.195Z,98.15
2018-09-23T11:13:44.669Z,98.12
2018-09-23T11:14:45.144Z,98.01
2018-09-23T11:15:45.617Z,97.87
2018-09-23T11:16:46.093Z,97.62
2018-09-23T11:17:46.564Z,97.54
2018-09-23T11:18:47.043Z,97.45
2018-09-23T11:19:47.512Z,97.27
2018-09-23T11:20:47.990Z,97.32
2018-09-23T11:21:48.461Z,97.27
2018-09-23T11:22:48.933Z,97.35
2018-09-23T11:23:49.406Z,97.32
2018-09-23T11:24:49.892Z,97.25
2018-09-23T11:25:50.353Z,97.10
2018-09-23T11:26:50.824Z,96.98
2018-09-23T11:27:51.299Z,96.86
2018-09-23T11:28:51.771Z,96.62
2018-09-23T11:29:52.241Z,96.28
2018-09-23T11:30:52.721Z,96.33
2018-09-23T11:31:53.187Z,96.12
2018-09-23T11:32:53.658Z,95.72
2018-09-23T11:33:54.129Z,95.20
2018-09-23T11:34:54.601Z,95.05
2018-09-23T11:35:55.074Z,94.79
2018-09-23T11:36:55.544Z,94.79
2018-09-23T11:37:56.015Z,94.27
2018-09-23T11:38:56.489Z,94.03
2018-09-23T11:39:56.970Z,93.83
2018-09-23T11:40:57.426Z,93.70
2018-09-23T11:41:57.900Z,94.01
2018-09-23T11:42:58.382Z,94.06
2018-09-23T11:43:58.838Z,94.25
2018-09-23T11:44:59.308Z,93.82
2018-09-23T11:45:59.780Z,93.12
2018-09-23T11:47:00.248Z,93.09
2018-09-23T11:48:00.722Z,92.18
2018-09-23T11:49:01.191Z,91.91
2018-09-23T11:50:01.661Z,91.98
2018-09-23T11:51:02.132Z,92.36
2018-09-23T11:52:02.604Z,92.52
2018-09-23T11:53:03.072Z,92.18
2018-09-23T11:54:03.541Z,92.15
2018-09-23T11:55:04.011Z,91.94
2018-09-23T11:56:04.484Z,91.77
2018-09-23T11:57:04.954Z,91.81
2018-09-23T11:58:05.425Z,92.07
2018-09-23T11:59:06.000Z,91.93
2018-09-23T12:00:06.367Z,91.89
2018-09-23T12:01:06.842Z,91.81
2018-09-23T12:02:07.356Z,91.49
2018-09-23T12:03:07.784Z,91.51
2018-09-23T12:04:08.251Z,90.57
2018-09-23T12:05:08.726Z,90.18
2018-09-23T12:06:09.196Z,90.20
2018-09-23T12:07:09.671Z,90.03
2018-09-23T12:08:10.140Z,89.58
2018-09-23T12:09:10.613Z,89.70
2018-09-23T12:10:11.127Z,89.59
2018-09-23T12:11:11.559Z,90.07
2018-09-23T12:12:12.035Z,90.42
2018-09-23T12:13:12.507Z,90.78
2018-09-23T12:14:12.978Z,91.00
2018-09-23T12:15:13.453Z,90.95
2018-09-23T12:16:13.927Z,90.66
2018-09-23T12:17:14.401Z,90.19
2018-09-23T12:18:14.874Z,89.52
2018-09-23T12:19:15.348Z,89.33
2018-09-23T12:20:15.822Z,89.40
2018-09-23T12:21:16.298Z,89.61
2018-09-23T12:22:16.770Z,89.44
2018-09-23T12:23:17.246Z,90.09
2018-09-23T12:24:17.719Z,89.53
2018-09-23T12:25:18.230Z,89.46
2018-09-23T12:26:18.669Z,89.76
2018-09-23T12:27:19.141Z,89.88
2018-09-23T12:28:19.620Z,89.79
2018-09-23T12:29:20.090Z,89.25
2018-09-23T12:30:20.565Z,88.87
2018-09-23T12:31:21.037Z,88.50
2018-09-23T12:32:21.511Z,87.39
2018-09-23T12:33:22.022Z,87.93
2018-09-23T12:34:22.458Z,88.49
2018-09-23T12:35:22.931Z,88.32
2018-09-23T12:36:23.404Z,87.14
2018-09-23T12:37:23.879Z,86.42
2018-09-23T12:38:24.351Z,86.63
2018-09-23T12:39:24.830Z,86.96
2018-09-23T12:40:25.297Z,86.81
2018-09-23T12:41:25.769Z,85.43
2018-09-23T12:42:26.240Z,85.20
2018-09-23T12:43:26.713Z,85.27
2018-09-23T12:44:27.185Z,85.87
2018-09-23T12:45:27.657Z,84.28
2018-09-23T12:46:28.128Z,85.43
2018-09-23T12:47:28.598Z,86.15
2018-09-23T12:48:29.071Z,85.47
2018-09-23T12:49:29.543Z,85.61
2018-09-23T12:50:30.013Z,85.92
2018-09-23T12:51:30.487Z,86.01
2018-09-23T12:52:30.954Z,86.60
2018-09-23T12:53:31.427Z,86.77
2018-09-23T12:54:31.897Z,86.73
2018-09-23T12:55:32.367Z,85.99
2018-09-23T12:56:32.838Z,86.22
2018-09-23T12:57:33.308Z,85.59
2018-09-23T12:58:33.782Z,83.44